createdAt,value
2018-07-14T00:02:01.611Z,14.17
2018-07-14T00:04:29.972Z,14.23
2018-07-14T00:06:58.425Z,14.32
2018-07-14T00:09:26.777Z,14.11
2018-07-14T00:11:55.187Z,13.77
2018-07-14T00:14:23.544Z,14.03
2018-07-14T00:16:51.895Z,13.84
2018-07-14T00:19:20.305Z,13.78
2018-07-14T00:21:48.639Z,13.80
2018-07-14T00:24:17.011Z,13.73
2018-07-14T00:26:45.395Z,13.68
2018-07-14T00:29:13.719Z,13.84
2018-07-14T00:31:42.103Z,13.92
2018-07-14T00:34:11.419Z,13.84
2018-07-14T00:36:39.791Z,13.74
2018-07-14T00:39:08.188Z,13.67
2018-07-14T00:41:36.553Z,13.69
2018-07-14T00:44:04.935Z,13.69
2018-07-14T00:46:33.287Z,13.87
2018-07-14T00:49:01.598Z,14.01
2018-07-14T00:51:30.005Z,14.04
2018-07-14T00:53:58.371Z,13.74
2018-07-14T00:56:26.826Z,13.53
2018-07-14T00:58:55.133Z,13.55
2018-07-14T01:01:23.468Z,13.64
2018-07-14T01:03:51.768Z,13.71
2018-07-14T01:06:20.160Z,13.62
2018-07-14T01:08:48.864Z,13.78
2018-07-14T01:11:17.229Z,13.66
2018-07-14T01:13:45.544Z,13.72
2018-07-14T01:16:13.897Z,13.61
2018-07-14T01:18:42.216Z,13.71
2018-07-14T01:21:10.627Z,13.46
2018-07-14T01:23:39.008Z,13.45
2018-07-14T01:26:07.392Z,13.34
2018-07-14T01:28:35.696Z,13.44
2018-07-14T01:31:04.149Z,13.65
2018-07-14T01:33:32.590Z,13.55
2018-07-14T01:36:00.958Z,13.69
2018-07-14T01:38:29.400Z,13.42
2018-07-14T01:40:57.875Z,13.27
2018-07-14T01:43:26.196Z,13.30
2018-07-14T01:45:54.559Z,13.22
2018-07-14T01:48:22.900Z,13.24
2018-07-14T01:50:52.855Z,13.35
2018-07-14T01:53:21.328Z,13.19
2018-07-14T01:55:49.785Z,13.27
2018-07-14T01:58:18.282Z,13.18
2018-07-14T02:00:46.635Z,13.01
2018-07-14T02:03:14.984Z,13.10
2018-07-14T02:05:43.340Z,13.04
2018-07-14T02:08:11.703Z,13.06
2018-07-14T02:10:40.154Z,13.03
2018-07-14T02:13:08.625Z,12.93
2018-07-14T02:15:37.023Z,12.92
2018-07-14T02:18:05.362Z,12.95
2018-07-14T02:20:33.704Z,12.89
2018-07-14T02:23:02.023Z,12.88
2018-07-14T02:25:30.348Z,12.77
2018-07-14T02:27:58.692Z,12.85
2018-07-14T02:30:27.020Z,12.71
2018-07-14T02:32:55.405Z,12.72
2018-07-14T02:35:23.713Z,12.90
2018-07-14T02:37:52.106Z,12.80
2018-07-14T02:40:20.417Z,12.60
2018-07-14T02:42:48.823Z,12.41
2018-07-14T02:45:17.274Z,12.33
2018-07-14T02:47:45.668Z,12.30
2018-07-14T02:50:14.006Z,12.16
2018-07-14T02:52:42.476Z,11.95
2018-07-14T02:55:10.819Z,11.91
2018-07-14T02:57:39.175Z,11.94
2018-07-14T03:00:07.522Z,11.90
2018-07-14T03:02:35.904Z,11.84
2018-07-14T03:05:04.219Z,11.91
2018-07-14T03:07:32.572Z,12.07
2018-07-14T03:10:00.906Z,12.01
2018-07-14T03:12:29.276Z,12.08
2018-07-14T03:14:57.582Z,12.15
2018-07-14T03:17:25.953Z,12.19
2018-07-14T03:19:54.292Z,12.08
2018-07-14T03:22:22.688Z,11.64
2018-07-14T03:24:51.006Z,11.42
2018-07-14T03:27:19.360Z,11.68
2018-07-14T03:29:47.685Z,11.98
2018-07-14T03:32:16.067Z,12.04
2018-07-14T03:34:44.440Z,12.08
2018-07-14T03:37:12.853Z,11.78
2018-07-14T03:39:41.175Z,12.10
2018-07-14T03:42:09.647Z,12.07
2018-07-14T03:44:38.653Z,12.09
2018-07-14T03:47:06.999Z,12.14
2018-07-14T03:49:35.340Z,12.23
2018-07-14T03:52:03.726Z,12.21
2018-07-14T03:54:32.089Z,12.19
2018-07-14T03:57:00.495Z,12.43
2018-07-14T03:59:28.884Z,12.51
2018-07-14T04:01:57.827Z,12.40
2018-07-14T04:04:26.186Z,12.51
2018-07-14T04:06:54.515Z,12.38
2018-07-14T04:09:22.878Z,12.41
2018-07-14T04:11:51.261Z,12.43
2018-07-14T04:14:19.619Z,12.54
2018-07-14T04:16:47.999Z,12.62
2018-07-14T04:19:16.439Z,12.81
2018-07-14T04:21:44.806Z,12.88
2018-07-14T04:24:13.165Z,13.04
2018-07-14T04:26:41.492Z,13.01
2018-07-14T04:29:09.827Z,13.04
2018-07-14T04:31:38.214Z,13.02
2018-07-14T04:34:06.573Z,12.95
2018-07-14T04:36:34.898Z,12.99
2018-07-14T04:39:03.809Z,13.14
2018-07-14T04:41:32.166Z,13.31
2018-07-14T04:44:00.602Z,13.50
2018-07-14T04:46:28.918Z,13.52
2018-07-14T04:48:57.353Z,13.62
2018-07-14T04:51:25.774Z,13.69
2018-07-14T04:53:54.148Z,13.73
2018-07-14T04:56:22.590Z,13.91
2018-07-14T04:58:51.412Z,14.10
2018-07-14T05:01:19.732Z,14.15
2018-07-14T05:03:48.203Z,14.23
2018-07-14T05:06:16.637Z,14.36
2018-07-14T05:08:45.024Z,14.25
2018-07-14T05:11:13.363Z,14.38
2018-07-14T05:13:41.726Z,14.53
2018-07-14T05:16:10.092Z,14.61
2018-07-14T05:18:38.432Z,14.57
2018-07-14T05:21:06.851Z,14.52
2018-07-14T05:23:35.234Z,14.70
2018-07-14T05:26:03.593Z,14.75
2018-07-14T05:28:32.004Z,14.83
2018-07-14T05:31:00.395Z,14.86
2018-07-14T05:33:43.487Z,14.92
2018-07-14T05:36:12.336Z,15.08
2018-07-14T05:38:40.702Z,15.08
2018-07-14T05:41:09.047Z,15.12
2018-07-14T05:43:37.411Z,15.14
2018-07-14T05:46:05.772Z,15.17
2018-07-14T05:48:34.136Z,15.27
2018-07-14T05:51:02.500Z,15.30
2018-07-14T05:53:30.883Z,15.43
2018-07-14T05:55:59.233Z,15.34
2018-07-14T05:58:27.594Z,15.37
2018-07-14T06:00:56.023Z,15.57
2018-07-14T06:03:24.400Z,15.58
2018-07-14T06:05:52.727Z,15.70
2018-07-14T06:08:21.080Z,15.83
2018-07-14T06:10:49.934Z,15.85
2018-07-14T06:13:18.428Z,15.81
2018-07-14T06:15:50.680Z,15.92
2018-07-14T06:18:19.095Z,15.93
2018-07-14T06:20:47.440Z,16.06
2018-07-14T06:23:15.872Z,16.09
2018-07-14T06:25:44.203Z,16.27
2018-07-14T06:28:13.702Z,16.08
2018-07-14T06:30:42.247Z,16.06
2018-07-14T06:33:10.660Z,16.00
2018-07-14T06:35:39.874Z,16.33
2018-07-14T06:38:09.710Z,16.33
2018-07-14T06:40:40.505Z,16.20
2018-07-14T06:43:08.880Z,16.30
2018-07-14T06:45:37.324Z,16.27
2018-07-14T06:48:05.652Z,16.42
2018-07-14T06:50:36.165Z,16.42
2018-07-14T06:53:04.923Z,16.38
2018-07-14T06:55:33.280Z,16.58
2018-07-14T06:58:02.350Z,16.51
2018-07-14T07:00:43.018Z,16.67
2018-07-14T07:03:11.357Z,16.72
2018-07-14T07:05:39.764Z,16.79
2018-07-14T07:08:08.173Z,16.65
2018-07-14T07:10:36.546Z,16.92
2018-07-14T07:13:04.898Z,16.61
2018-07-14T07:15:33.286Z,16.83
2018-07-14T07:18:01.659Z,16.72
2018-07-14T07:20:30.132Z,16.80
2018-07-14T07:22:58.477Z,16.96
2018-07-14T07:25:26.960Z,17.14
2018-07-14T07:27:56.472Z,17.15
2018-07-14T07:30:24.877Z,17.14
2018-07-14T07:32:53.260Z,17.03
2018-07-14T07:35:21.721Z,17.20
2018-07-14T07:37:50.341Z,17.35
2018-07-14T07:40:18.980Z,17.52
2018-07-14T07:42:48.085Z,17.59
2018-07-14T07:45:16.455Z,17.54
2018-07-14T07:47:44.795Z,17.57
2018-07-14T07:50:13.165Z,17.76
2018-07-14T07:52:41.506Z,17.81
2018-07-14T07:55:09.977Z,17.79
2018-07-14T07:57:38.668Z,17.93
2018-07-14T08:00:07.208Z,17.85
2018-07-14T08:02:35.533Z,17.79
2018-07-14T08:05:03.998Z,17.89
2018-07-14T08:07:32.343Z,18.06
2018-07-14T08:10:00.820Z,18.27
2018-07-14T08:12:29.174Z,18.34
2018-07-14T08:14:57.564Z,18.22
2018-07-14T08:17:25.899Z,18.19
2018-07-14T08:19:54.746Z,18.27
2018-07-14T08:22:23.064Z,18.47
2018-07-14T08:24:51.439Z,18.62
2018-07-14T08:27:21.051Z,18.62
2018-07-14T08:29:49.505Z,18.79
2018-07-14T08:32:17.875Z,18.92
2018-07-14T08:34:46.255Z,18.88
2018-07-14T08:37:14.583Z,19.10
2018-07-14T08:39:43.071Z,19.01
2018-07-14T08:42:11.412Z,18.88
2018-07-14T08:44:39.770Z,19.06
2018-07-14T08:47:08.190Z,19.26
2018-07-14T08:49:36.547Z,19.46
2018-07-14T08:52:04.952Z,19.63
2018-07-14T08:54:33.960Z,19.61
2018-07-14T08:57:02.300Z,19.90
2018-07-14T08:59:30.757Z,20.11
2018-07-14T09:01:59.131Z,20.07
2018-07-14T09:04:27.793Z,20.10
2018-07-14T09:06:56.236Z,20.28
2018-07-14T09:09:24.656Z,20.49
2018-07-14T09:11:53.046Z,20.38
2018-07-14T09:14:21.444Z,20.46
2018-07-14T09:16:49.881Z,20.31
2018-07-14T09:19:18.849Z,20.32
2018-07-14T09:21:47.241Z,20.36
2018-07-14T09:24:15.635Z,20.59
2018-07-14T09:26:44.888Z,20.49
2018-07-14T09:29:13.721Z,20.50
2018-07-14T09:31:42.168Z,20.65
2018-07-14T09:34:10.581Z,20.87
2018-07-14T09:36:39.326Z,20.94
2018-07-14T09:39:07.922Z,21.12
2018-07-14T09:41:36.374Z,21.01
2018-07-14T09:44:04.780Z,20.97
2018-07-14T09:46:33.233Z,21.09
2018-07-14T09:49:01.549Z,21.32
2018-07-14T09:51:29.906Z,21.51
2018-07-14T09:53:58.297Z,21.48
2018-07-14T09:56:26.863Z,21.48
2018-07-14T09:58:55.390Z,21.65
2018-07-14T10:01:24.130Z,21.62
2018-07-14T10:03:53.324Z,21.87
2018-07-14T10:06:22.388Z,22.24
2018-07-14T10:08:50.937Z,22.54
2018-07-14T10:11:19.580Z,22.74
2018-07-14T10:13:48.677Z,22.99
2018-07-14T10:16:17.063Z,22.61
2018-07-14T10:18:45.492Z,22.17
2018-07-14T10:21:13.874Z,22.19
2018-07-14T10:23:42.229Z,22.15
2018-07-14T10:26:10.769Z,22.25
2018-07-14T10:28:39.190Z,22.64
2018-07-14T10:31:07.934Z,22.32
2018-07-14T10:33:36.570Z,22.63
2018-07-14T10:36:07.556Z,23.14
2018-07-14T10:38:36.009Z,23.15
2018-07-14T10:41:04.536Z,22.79
2018-07-14T10:43:33.129Z,23.19
2018-07-14T10:46:03.404Z,23.33
2018-07-14T10:48:31.847Z,23.38
2018-07-14T11:32:16.061Z,23.36
2018-07-14T11:34:52.639Z,23.66
2018-07-14T11:37:23.679Z,23.37
2018-07-14T11:39:58.041Z,23.52
2018-07-14T11:42:28.350Z,23.43
2018-07-14T11:45:01.530Z,23.57
2018-07-14T11:47:44.527Z,23.83
2018-07-14T11:50:15.180Z,24.10
2018-07-14T11:52:49.559Z,23.85
2018-07-14T11:55:19.411Z,23.80
2018-07-14T11:57:51.713Z,23.94
2018-07-14T12:03:01.087Z,23.94
2018-07-14T12:05:37.811Z,24.32
2018-07-14T12:08:12.401Z,24.31
2018-07-14T12:10:46.702Z,24.23
2018-07-14T12:13:22.097Z,24.21
2018-07-14T12:16:13.135Z,24.02
2018-07-14T12:19:14.957Z,24.01
2018-07-14T12:22:13.624Z,24.44
2018-07-14T12:25:03.597Z,24.75
2018-07-14T12:28:03.994Z,24.91
2018-07-14T12:30:50.514Z,24.60
2018-07-14T12:33:58.791Z,24.46
2018-07-14T12:36:38.906Z,24.43
2018-07-14T12:39:10.838Z,24.75
2018-07-14T12:41:48.807Z,25.03
2018-07-14T12:44:27.430Z,24.53
2018-07-14T12:47:07.683Z,24.66
2018-07-14T12:49:51.785Z,24.98
2018-07-14T12:52:24.159Z,24.98
2018-07-14T12:55:09.553Z,25.22
2018-07-14T12:57:49.648Z,25.47
2018-07-14T13:00:30.861Z,25.22
2018-07-14T13:03:15.664Z,25.28
2018-07-14T13:05:54.167Z,25.33
2018-07-14T13:08:26.100Z,25.30
2018-07-14T13:11:05.307Z,25.38
2018-07-14T13:13:53.994Z,25.33
2018-07-14T13:19:21.477Z,25.14
2018-07-14T13:21:56.447Z,24.50
2018-07-14T13:24:50.385Z,24.82
2018-07-14T13:27:31.766Z,25.41
2018-07-14T13:30:13.420Z,25.10
2018-07-14T13:32:58.823Z,25.18
2018-07-14T13:35:41.285Z,25.39
2018-07-14T13:38:22.087Z,25.47
2018-07-14T13:40:56.192Z,25.21
2018-07-14T13:43:47.952Z,25.17
2018-07-14T13:46:26.220Z,25.01
2018-07-14T13:49:07.823Z,25.33
2018-07-14T13:51:58.794Z,25.11
2018-07-14T13:54:41.418Z,25.34
2018-07-14T13:57:42.495Z,24.96
2018-07-14T14:00:18.314Z,24.79
2018-07-14T14:02:56.430Z,24.69
2018-07-14T14:05:45.046Z,24.64
2018-07-14T14:08:23.903Z,24.58
2018-07-14T14:13:52.716Z,24.42
2018-07-14T14:16:31.795Z,24.95
2018-07-14T14:19:11.381Z,25.13
2018-07-14T14:24:42.094Z,25.58
2018-07-14T14:30:08.846Z,25.57
2018-07-14T14:32:48.131Z,25.57
2018-07-14T14:35:31.416Z,25.59
2018-07-14T14:38:13.684Z,25.35
2018-07-14T14:40:47.405Z,25.70
2018-07-14T14:43:19.167Z,24.95
2018-07-14T14:45:51.494Z,24.96
2018-07-14T14:48:23.222Z,25.23
2018-07-14T14:51:01.610Z,24.89
2018-07-14T14:53:38.835Z,24.98
2018-07-14T14:56:16.723Z,25.08
2018-07-14T14:58:49.615Z,24.95
2018-07-14T15:01:19.759Z,24.91
2018-07-14T15:03:53.248Z,25.30
2018-07-14T15:06:28.732Z,24.98
2018-07-14T15:09:00.998Z,25.26
2018-07-14T15:11:31.822Z,25.31
2018-07-14T15:14:06.668Z,25.24
2018-07-14T15:16:39.896Z,24.73
2018-07-14T15:19:13.413Z,25.05
2018-07-14T15:21:47.177Z,25.30
2018-07-14T15:24:21.139Z,25.24
2018-07-14T15:26:53.062Z,25.50
2018-07-14T15:29:27.709Z,25.51
2018-07-14T15:32:04.236Z,25.11
2018-07-14T15:34:34.929Z,25.35
2018-07-14T15:37:15.109Z,25.40
2018-07-14T15:39:46.466Z,25.34
2018-07-14T15:42:16.799Z,25.20
2018-07-14T15:45:00.669Z,25.48
2018-07-14T15:47:49.447Z,25.30
2018-07-14T15:50:18.407Z,25.24
2018-07-14T15:52:47.515Z,24.85
2018-07-14T15:55:17.874Z,24.85
2018-07-14T15:57:50.609Z,24.84
2018-07-14T16:00:19.313Z,24.98
2018-07-14T16:02:49.279Z,25.13
2018-07-14T16:05:22.987Z,25.41
2018-07-14T16:07:54.077Z,25.23
2018-07-14T16:10:25.694Z,25.25
2018-07-14T16:12:59.100Z,25.27
2018-07-14T16:15:35.100Z,25.10
2018-07-14T16:18:09.329Z,25.08
2018-07-14T16:20:44.611Z,24.86
2018-07-14T16:23:20.040Z,25.08
2018-07-14T16:25:53.385Z,25.01
2018-07-14T16:28:27.057Z,24.85
2018-07-14T16:31:00.512Z,24.97
2018-07-14T16:33:34.073Z,24.99
2018-07-14T16:36:08.167Z,25.05
2018-07-14T16:38:44.340Z,24.90
2018-07-14T16:41:20.120Z,24.86
2018-07-14T16:43:52.480Z,24.71
2018-07-14T16:46:24.816Z,24.79
2018-07-14T16:48:58.472Z,25.00
2018-07-14T16:51:31.277Z,24.82
2018-07-14T16:54:02.287Z,24.78
2018-07-14T16:56:33.346Z,24.84
2018-07-14T16:59:07.345Z,24.66
2018-07-14T17:01:43.871Z,24.71
2018-07-14T17:04:19.201Z,24.70
2018-07-14T17:06:57.417Z,24.74
2018-07-14T17:09:28.700Z,24.47
2018-07-14T17:12:04.980Z,24.48
2018-07-14T17:14:37.773Z,24.44
2018-07-14T17:17:10.469Z,24.17
2018-07-14T17:19:48.249Z,24.17
2018-07-14T17:22:28.294Z,23.91
2018-07-14T17:25:02.448Z,24.12
2018-07-14T17:27:41.522Z,24.08
2018-07-14T17:30:18.354Z,24.16
2018-07-14T17:32:50.674Z,24.47
2018-07-14T17:35:31.065Z,24.21
2018-07-14T17:38:07.765Z,24.38
2018-07-14T17:40:42.032Z,24.55
2018-07-14T17:43:13.374Z,24.20
2018-07-14T17:45:46.195Z,24.05
2018-07-14T17:48:19.131Z,23.94
2018-07-14T17:50:52.952Z,24.09
2018-07-14T17:53:29.268Z,24.18
2018-07-14T17:56:04.352Z,23.84
2018-07-14T17:58:50.023Z,23.55
2018-07-14T18:01:31.176Z,23.41
2018-07-14T18:04:05.868Z,23.29
2018-07-14T18:06:42.614Z,23.39
2018-07-14T18:09:36.132Z,23.15
2018-07-14T18:12:16.645Z,23.06
2018-07-14T18:14:51.270Z,23.09
2018-07-14T18:17:30.708Z,23.05
2018-07-14T18:20:12.655Z,22.99
2018-07-14T18:22:44.055Z,22.85
2018-07-14T18:25:17.585Z,22.97
2018-07-14T18:27:52.792Z,22.66
2018-07-14T18:30:26.859Z,22.62
2018-07-14T18:32:58.405Z,22.44
2018-07-14T18:35:29.701Z,22.74
2018-07-14T18:38:08.017Z,22.48
2018-07-14T18:40:43.963Z,22.44
2018-07-14T18:43:23.100Z,22.35
2018-07-14T18:46:03.658Z,22.40
2018-07-14T18:48:42.425Z,22.11
2018-07-14T18:51:14.287Z,22.01
2018-07-14T18:53:48.926Z,22.13
2018-07-14T18:56:46.276Z,21.98
2018-07-14T18:59:18.904Z,21.85
2018-07-14T19:01:52.391Z,21.93
2018-07-14T19:04:23.970Z,21.68
2018-07-14T19:06:56.336Z,21.78
2018-07-14T19:09:29.258Z,21.55
2018-07-14T19:12:05.162Z,21.66
2018-07-14T19:14:41.910Z,21.51
2018-07-14T19:17:17.462Z,21.68
2018-07-14T19:19:55.379Z,21.52
2018-07-14T19:22:32.981Z,21.44
2018-07-14T19:25:07.238Z,21.46
2018-07-14T19:27:49.515Z,21.25
2018-07-14T19:30:23.807Z,21.12
2018-07-14T19:32:55.475Z,21.10
2018-07-14T19:35:27.267Z,20.88
2018-07-14T19:37:59.686Z,20.79
2018-07-14T19:40:29.066Z,20.78
2018-07-14T19:42:59.157Z,20.72
2018-07-14T19:45:28.717Z,20.54
2018-07-14T19:47:58.097Z,20.59
2018-07-14T19:50:27.359Z,20.64
2018-07-14T19:52:56.887Z,20.50
2018-07-14T19:55:27.315Z,20.36
2018-07-14T19:57:56.906Z,20.30
2018-07-14T20:00:26.138Z,20.05
2018-07-14T20:02:56.007Z,20.07
2018-07-14T20:05:24.493Z,19.98
2018-07-14T20:07:57.497Z,19.94
2018-07-14T20:10:26.339Z,19.81
2018-07-14T20:12:54.778Z,19.83
2018-07-14T20:15:23.201Z,19.97
2018-07-14T20:17:51.957Z,20.04
2018-07-14T20:20:20.434Z,19.79
2018-07-14T20:22:48.900Z,19.91
2018-07-14T20:25:19.757Z,19.84
2018-07-14T20:27:48.163Z,19.71
2018-07-14T20:30:20.279Z,19.53
2018-07-14T20:32:48.794Z,19.53
2018-07-14T20:35:17.404Z,19.41
2018-07-14T20:37:45.815Z,19.39
2018-07-14T20:40:14.226Z,19.47
2018-07-14T20:42:42.656Z,19.59
2018-07-14T20:45:11.010Z,19.53
2018-07-14T20:47:39.557Z,19.50
2018-07-14T20:50:07.996Z,19.49
2018-07-14T20:52:36.432Z,19.32
2018-07-14T20:55:04.912Z,19.00
2018-07-14T20:57:33.347Z,18.98
2018-07-14T21:00:01.774Z,18.97
2018-07-14T21:02:30.180Z,18.83
2018-07-14T21:04:58.576Z,18.79
2018-07-14T21:07:27.030Z,18.76
2018-07-14T21:09:55.494Z,18.82
2018-07-14T21:12:24.063Z,18.76
2018-07-14T21:14:52.434Z,18.80
2018-07-14T21:17:20.924Z,18.72
2018-07-14T21:19:49.331Z,18.61
2018-07-14T21:22:17.732Z,18.74
2018-07-14T21:24:46.123Z,18.60
2018-07-14T21:27:14.713Z,18.77
2018-07-14T21:29:43.157Z,18.64
2018-07-14T21:32:11.610Z,18.43
2018-07-14T21:34:40.048Z,18.59
2018-07-14T21:37:08.515Z,18.55
2018-07-14T21:39:36.957Z,18.37
2018-07-14T21:42:05.380Z,18.53
2018-07-14T21:44:33.796Z,18.53
2018-07-14T21:47:02.279Z,18.51
2018-07-14T21:49:30.687Z,18.46
2018-07-14T21:51:59.098Z,18.53
2018-07-14T21:54:27.542Z,18.40
2018-07-14T21:56:55.928Z,18.54
2018-07-14T21:59:24.296Z,18.53
2018-07-14T22:01:53.429Z,18.50
2018-07-14T22:04:22.402Z,18.56
2018-07-14T22:06:51.732Z,18.40
2018-07-14T22:09:20.185Z,18.38
2018-07-14T22:11:48.606Z,18.28
2018-07-14T22:14:17.056Z,18.27
2018-07-14T22:16:45.472Z,18.28
2018-07-14T22:19:13.887Z,18.17
2018-07-14T22:21:42.300Z,18.21
2018-07-14T22:24:10.748Z,17.96
2018-07-14T22:26:39.206Z,17.82
2018-07-14T22:29:07.698Z,17.64
2018-07-14T22:31:36.142Z,17.58
2018-07-14T22:34:04.681Z,17.22
2018-07-14T22:36:33.175Z,16.99
2018-07-14T22:39:01.546Z,16.80
2018-07-14T22:41:30.045Z,16.83
2018-07-14T22:43:58.578Z,16.88
2018-07-14T22:46:26.969Z,17.01
2018-07-14T22:48:55.391Z,16.71
2018-07-14T22:51:23.843Z,16.92
2018-07-14T22:53:52.377Z,17.02
2018-07-14T22:56:20.891Z,16.86
2018-07-14T22:58:49.351Z,16.90
2018-07-14T23:01:17.729Z,17.00
2018-07-14T23:03:46.188Z,17.00
2018-07-14T23:06:14.686Z,16.90
2018-07-14T23:08:43.165Z,16.55
2018-07-14T23:11:11.644Z,16.43
2018-07-14T23:13:40.095Z,16.31
2018-07-14T23:16:08.481Z,16.37
2018-07-14T23:18:37.040Z,16.08
2018-07-14T23:21:05.534Z,16.19
2018-07-14T23:23:33.958Z,16.14
2018-07-14T23:26:02.427Z,16.08
2018-07-14T23:28:31.232Z,15.93
2018-07-14T23:30:59.683Z,15.89
2018-07-14T23:33:28.312Z,15.76
2018-07-14T23:35:57.227Z,16.12
2018-07-14T23:38:25.844Z,16.06
2018-07-14T23:40:54.313Z,16.10
2018-07-14T23:43:22.732Z,15.92
2018-07-14T23:45:51.125Z,16.05
2018-07-14T23:48:19.518Z,16.20
2018-07-14T23:50:48.023Z,16.20
2018-07-14T23:53:16.620Z,16.01
2018-07-14T23:55:45.024Z,15.68
2018-07-14T23:58:13.603Z,15.88
